createdAt,value
2017-05-22T06:04:02.039Z,42.30
2017-05-22T06:06:31.062Z,41.70
2017-05-22T06:09:00.078Z,41.70
2017-05-22T06:11:29.220Z,41.40
2017-05-22T06:17:32.764Z,39.40
2017-05-22T06:20:01.778Z,39.70
2017-05-22T06:24:38.597Z,34.80
2017-05-22T06:27:07.681Z,35.40
2017-05-22T06:29:36.728Z,36.90
2017-05-22T06:32:05.780Z,38.40
2017-05-22T06:34:34.851Z,39.70
2017-05-22T06:37:03.867Z,40.60
2017-05-22T06:39:32.932Z,41.80
2017-05-22T06:42:01.926Z,42.70
2017-05-22T06:44:30.942Z,43.40
2017-05-22T06:46:59.999Z,43.50
2017-05-22T06:49:29.015Z,43.90
2017-05-22T06:51:58.142Z,43.90
2017-05-22T06:54:27.198Z,44.10
2017-05-22T06:56:56.203Z,44.60
2017-05-22T06:59:25.218Z,43.90
2017-05-22T07:01:54.313Z,43.80
2017-05-22T07:04:23.325Z,43.70
2017-05-22T07:06:52.351Z,44.00
2017-05-22T07:09:21.396Z,43.70
2017-05-22T07:11:50.413Z,42.30
2017-05-22T07:14:19.678Z,42.00
2017-05-22T07:16:48.728Z,41.70
2017-05-22T07:19:17.749Z,41.00
2017-05-22T07:21:46.771Z,41.30
2017-05-22T07:24:15.813Z,41.30
2017-05-22T07:26:44.905Z,40.80
2017-05-22T07:29:13.931Z,40.60
2017-05-22T07:31:43.002Z,39.90
2017-05-22T07:34:12.020Z,39.80
2017-05-22T07:36:41.039Z,40.10
2017-05-22T07:39:10.189Z,40.30
2017-05-22T07:41:39.278Z,39.40
2017-05-22T07:44:08.297Z,39.90
2017-05-22T07:46:37.350Z,39.70
2017-05-22T07:49:06.359Z,39.20
2017-05-22T07:51:35.383Z,38.00
2017-05-22T07:54:04.422Z,38.10
2017-05-22T07:56:33.455Z,36.90
2017-05-22T07:59:02.465Z,34.70
2017-05-22T08:01:31.584Z,34.90
2017-05-22T08:04:00.669Z,34.00
2017-05-22T08:09:05.137Z,31.40
2017-05-22T08:11:34.164Z,30.30
2017-05-22T08:14:03.187Z,29.70
2017-05-22T08:16:32.230Z,29.50
2017-05-22T08:19:01.267Z,30.00
2017-05-22T08:21:30.270Z,29.20
2017-05-22T08:23:59.305Z,29.10
2017-05-22T08:26:28.329Z,28.10
2017-05-22T08:28:57.447Z,26.60
2017-05-22T08:31:26.521Z,27.80
2017-05-22T08:33:55.533Z,27.70
2017-05-22T08:36:24.682Z,27.70
2017-05-22T08:38:53.726Z,27.50
2017-05-22T08:41:22.834Z,27.50
2017-05-22T08:43:52.018Z,29.10
2017-05-22T08:46:21.205Z,29.40
2017-05-22T08:48:50.486Z,29.80
2017-05-22T08:51:19.535Z,30.30
2017-05-22T08:56:24.054Z,31.70
2017-05-22T08:58:53.166Z,31.90
2017-05-22T09:01:22.241Z,33.60
2017-05-22T09:03:51.354Z,34.80
2017-05-22T09:06:20.446Z,35.00
2017-05-22T09:08:49.461Z,35.60
2017-05-22T09:11:18.786Z,36.90
2017-05-22T09:13:47.833Z,36.50
2017-05-22T09:16:16.895Z,36.70
2017-05-22T09:18:45.914Z,36.80
2017-05-22T09:21:14.973Z,37.90
2017-05-22T09:23:43.991Z,39.80
2017-05-22T09:26:13.010Z,39.60
2017-05-22T09:28:42.067Z,38.10
2017-05-22T09:31:11.424Z,38.50
2017-05-22T09:33:40.730Z,39.40
2017-05-22T09:36:09.963Z,39.00
2017-05-22T09:38:39.030Z,39.20
2017-05-22T09:41:08.133Z,39.60
2017-05-22T09:43:37.721Z,39.90
2017-05-22T09:46:06.800Z,38.50
2017-05-22T09:48:36.026Z,38.40
2017-05-22T09:51:05.249Z,38.30
2017-05-22T09:53:34.309Z,38.30
2017-05-22T09:56:03.428Z,37.60
2017-05-22T09:58:32.520Z,37.40
2017-05-22T10:01:01.565Z,37.40
2017-05-22T10:03:30.728Z,37.40
2017-05-22T10:05:59.889Z,36.80
2017-05-22T10:08:28.962Z,36.90
2017-05-22T10:10:58.037Z,36.20
2017-05-22T10:13:27.942Z,35.70
2017-05-22T10:15:57.085Z,35.10
2017-05-22T10:18:26.505Z,35.50
2017-05-22T10:20:55.826Z,35.40
2017-05-22T10:23:24.955Z,36.80
2017-05-22T10:25:54.084Z,35.30
2017-05-22T10:28:23.263Z,34.60
2017-05-22T10:30:52.400Z,34.20
2017-05-22T10:33:21.647Z,33.60
2017-05-22T10:35:50.785Z,33.50
2017-05-22T10:38:19.884Z,34.30
2017-05-22T10:40:48.994Z,34.40
2017-05-22T10:43:18.351Z,35.00
2017-05-22T10:45:48.249Z,35.60
2017-05-22T10:48:17.304Z,35.60
2017-05-22T10:50:46.435Z,36.10
2017-05-22T10:53:15.600Z,36.30
2017-05-22T10:55:44.648Z,36.10
2017-05-22T10:58:13.969Z,35.40
2017-05-22T11:00:43.295Z,35.70
2017-05-22T11:03:12.369Z,35.80
2017-05-22T11:05:41.773Z,35.10
2017-05-22T11:08:11.055Z,35.60
2017-05-22T11:10:40.091Z,35.60
2017-05-22T11:13:09.212Z,35.00
2017-05-22T11:15:38.335Z,35.00
2017-05-22T11:18:07.386Z,33.80
2017-05-22T11:20:36.525Z,34.00
2017-05-22T11:23:05.634Z,32.80
2017-05-22T11:25:34.794Z,33.20
2017-05-22T11:28:04.207Z,33.20
2017-05-22T11:30:33.239Z,34.30
2017-05-22T11:33:02.496Z,35.80
2017-05-22T11:35:31.695Z,36.70
2017-05-22T11:38:01.234Z,33.90
2017-05-22T11:40:30.459Z,32.70
2017-05-22T11:43:00.005Z,33.40
2017-05-22T11:45:29.778Z,32.30
2017-05-22T11:47:58.888Z,32.20
2017-05-22T11:50:28.054Z,31.80
2017-05-22T11:52:57.090Z,31.60
2017-05-22T11:55:26.211Z,31.40
2017-05-22T11:57:55.332Z,30.90
2017-05-22T12:00:24.398Z,30.80
2017-05-22T12:02:53.573Z,30.90
2017-05-22T12:05:22.589Z,32.80
2017-05-22T12:07:51.654Z,32.90
2017-05-22T12:10:21.131Z,32.80
2017-05-22T12:12:50.311Z,31.60
2017-05-22T12:15:19.426Z,32.60
2017-05-22T12:17:48.493Z,32.90
2017-05-22T12:20:17.522Z,31.80
2017-05-22T12:22:46.542Z,30.80
2017-05-22T12:25:15.599Z,31.30
2017-05-22T12:27:44.612Z,31.30
2017-05-22T12:30:13.667Z,33.10
2017-05-22T12:32:42.797Z,30.90
2017-05-22T12:35:12.044Z,30.90
2017-05-22T12:37:41.090Z,31.10
2017-05-22T12:40:10.171Z,31.40
2017-05-22T12:42:39.514Z,30.60
2017-05-22T12:45:08.708Z,30.80
2017-05-22T12:47:37.782Z,30.80
2017-05-22T12:50:06.918Z,33.30
2017-05-22T12:52:36.637Z,33.40
2017-05-22T12:55:05.915Z,32.40
2017-05-22T12:57:34.935Z,32.00
2017-05-22T13:00:04.085Z,31.70
2017-05-22T13:02:33.351Z,31.80
2017-05-22T13:05:02.435Z,31.70
2017-05-22T13:07:31.962Z,31.40
2017-05-22T13:10:02.413Z,32.50
2017-05-22T13:12:31.593Z,32.30
2017-05-22T13:15:00.586Z,32.20
2017-05-22T13:17:29.645Z,32.80
2017-05-22T13:19:58.749Z,32.20
2017-05-22T13:22:27.848Z,32.20
2017-05-22T13:24:56.920Z,32.10
2017-05-22T13:27:25.940Z,32.30
2017-05-22T13:29:54.952Z,31.90
2017-05-22T13:32:24.039Z,31.60
2017-05-22T13:34:53.318Z,31.60
2017-05-22T13:37:22.305Z,32.00
2017-05-22T13:39:51.583Z,32.60
2017-05-22T13:42:20.653Z,32.80
2017-05-22T13:44:49.911Z,33.80
2017-05-22T13:47:18.953Z,31.90
2017-05-22T13:49:47.975Z,32.60
2017-05-22T13:52:17.024Z,32.10
2017-05-22T13:54:46.086Z,31.60
2017-05-22T13:57:15.108Z,31.70
2017-05-22T13:59:44.128Z,31.90
2017-05-22T14:02:13.258Z,31.80
2017-05-22T14:04:42.295Z,31.60
2017-05-22T14:07:11.315Z,31.50
2017-05-22T14:09:40.466Z,31.30
2017-05-22T14:12:09.526Z,32.60
2017-05-22T14:14:38.629Z,33.00
2017-05-22T14:17:07.734Z,33.80
2017-05-22T14:19:36.831Z,33.40
2017-05-22T14:22:05.859Z,33.80
2017-05-22T14:24:34.889Z,34.20
2017-05-22T14:27:03.905Z,33.80
2017-05-22T14:29:32.925Z,33.40
2017-05-22T14:32:01.981Z,33.70
2017-05-22T14:34:31.086Z,33.30
2017-05-22T14:37:00.101Z,33.00
2017-05-22T14:39:29.158Z,33.40
2017-05-22T14:41:58.169Z,32.60
2017-05-22T14:44:27.403Z,32.30
2017-05-22T14:46:56.423Z,32.40
2017-05-22T14:49:25.478Z,32.60
2017-05-22T14:51:54.564Z,32.70
2017-05-22T14:54:23.913Z,32.50
2017-05-22T14:56:52.978Z,32.90
2017-05-22T14:59:22.194Z,33.10
2017-05-22T15:01:51.404Z,31.60
2017-05-22T15:04:20.576Z,32.30
2017-05-22T15:06:49.809Z,32.00
2017-05-22T15:09:19.162Z,31.90
2017-05-22T15:11:48.226Z,32.50
2017-05-22T15:14:17.401Z,31.80
2017-05-22T15:16:46.572Z,31.80
2017-05-22T15:19:15.623Z,32.40
2017-05-22T15:21:44.783Z,32.60
2017-05-22T15:24:13.944Z,31.70
2017-05-22T15:26:43.014Z,31.70
2017-05-22T15:29:12.351Z,32.80
2017-05-22T15:31:41.540Z,31.60
2017-05-22T15:34:10.601Z,31.30
2017-05-22T15:36:39.672Z,31.70
2017-05-22T15:39:08.786Z,33.00
2017-05-22T15:41:37.943Z,33.10
2017-05-22T15:44:07.033Z,32.20
2017-05-22T15:46:36.181Z,32.60
2017-05-22T15:49:05.274Z,32.50
2017-05-22T15:51:34.396Z,32.10
2017-05-22T15:54:03.541Z,32.40
2017-05-22T15:56:32.813Z,32.80
2017-05-22T15:59:01.964Z,32.80
2017-05-22T16:01:31.102Z,32.30
2017-05-22T16:04:00.159Z,32.20
2017-05-22T16:06:29.246Z,32.70
2017-05-22T16:08:58.681Z,32.40
2017-05-22T16:11:27.747Z,32.40
2017-05-22T16:13:56.878Z,32.30
2017-05-22T16:16:26.064Z,32.80
2017-05-22T16:18:55.137Z,32.60
2017-05-22T16:21:24.215Z,32.70
2017-05-22T16:23:53.437Z,32.90
2017-05-22T16:26:22.760Z,32.50
2017-05-22T16:28:52.103Z,32.80
2017-05-22T16:31:21.228Z,32.80
2017-05-22T16:33:50.265Z,32.40
2017-05-22T16:36:19.519Z,32.30
2017-05-22T16:38:48.829Z,31.60
2017-05-22T16:41:17.943Z,31.30
2017-05-22T16:43:47.333Z,32.30
2017-05-22T16:46:16.644Z,32.30
2017-05-22T16:48:45.717Z,33.80
2017-05-22T16:51:14.798Z,34.70
2017-05-22T16:53:43.976Z,35.30
2017-05-22T16:56:13.113Z,36.10
2017-05-22T16:58:42.332Z,37.10
2017-05-22T17:01:11.503Z,37.10
2017-05-22T17:03:40.519Z,37.60
2017-05-22T17:06:09.633Z,38.10
2017-05-22T17:08:38.758Z,38.10
2017-05-22T17:11:07.846Z,38.00
2017-05-22T17:13:36.918Z,38.00
2017-05-22T17:16:06.280Z,38.10
2017-05-22T17:18:35.307Z,38.00
2017-05-22T17:21:04.461Z,38.00
2017-05-22T17:23:33.781Z,38.30
2017-05-22T17:26:03.072Z,38.30
2017-05-22T17:28:32.185Z,38.40
2017-05-22T17:31:01.368Z,38.40
2017-05-22T17:33:30.532Z,38.50
2017-05-22T17:35:59.681Z,39.10
2017-05-22T17:38:28.951Z,39.00
2017-05-22T17:40:58.063Z,39.40
2017-05-22T17:43:27.066Z,38.80
2017-05-22T17:45:56.244Z,38.60
2017-05-22T17:48:25.278Z,39.40
2017-05-22T17:50:54.340Z,39.00
2017-05-22T17:53:23.396Z,38.70
2017-05-22T17:55:52.511Z,38.50
2017-05-22T17:58:21.640Z,38.50
2017-05-22T18:00:50.773Z,38.80
2017-05-22T18:03:19.802Z,38.80
2017-05-22T18:05:48.912Z,39.10
2017-05-22T18:08:18.032Z,39.10
2017-05-22T18:10:47.176Z,38.90
2017-05-22T18:13:16.311Z,38.90
2017-05-22T18:15:45.492Z,39.10
2017-05-22T18:18:14.583Z,39.30
2017-05-22T18:20:43.613Z,39.70
2017-05-22T18:23:12.691Z,39.90
2017-05-22T18:25:41.898Z,40.20
2017-05-22T18:28:11.002Z,40.30
2017-05-22T18:30:40.138Z,40.60
2017-05-22T18:33:09.191Z,41.00
2017-05-22T18:35:38.262Z,41.20
2017-05-22T18:38:07.332Z,41.30
2017-05-22T18:40:36.670Z,41.50
2017-05-22T18:43:06.269Z,41.40
2017-05-22T18:45:35.699Z,41.30
2017-05-22T18:48:05.445Z,41.40
2017-05-22T18:50:34.469Z,41.50
2017-05-22T18:53:03.844Z,41.20
2017-05-22T18:55:32.990Z,41.30
2017-05-22T18:58:02.135Z,41.30
2017-05-22T19:00:31.174Z,41.60
2017-05-22T19:03:00.204Z,41.50
2017-05-22T19:05:29.401Z,41.60
2017-05-22T19:07:58.480Z,42.00
2017-05-22T19:10:27.866Z,42.10
2017-05-22T19:12:57.075Z,42.30
2017-05-22T19:15:26.205Z,42.20
2017-05-22T19:17:55.484Z,42.50
2017-05-22T19:20:24.646Z,42.70
2017-05-22T19:22:53.766Z,42.60
2017-05-22T19:25:23.175Z,42.90
2017-05-22T19:27:52.368Z,43.10
2017-05-22T19:30:21.612Z,43.70
2017-05-22T19:32:50.663Z,43.80
2017-05-22T19:35:20.063Z,44.40
2017-05-22T19:37:49.606Z,44.90
2017-05-22T19:40:18.653Z,45.70
2017-05-22T19:42:47.709Z,46.00
2017-05-22T19:45:16.773Z,46.00
2017-05-22T19:47:45.794Z,46.10
2017-05-22T19:50:14.819Z,46.20
2017-05-22T19:52:43.883Z,46.70
2017-05-22T19:55:13.010Z,46.50
2017-05-22T19:57:42.040Z,46.70
2017-05-22T20:00:11.149Z,46.70
2017-05-22T20:02:40.212Z,47.00
2017-05-22T20:05:09.249Z,46.90
2017-05-22T20:07:38.362Z,47.20
2017-05-22T20:10:07.387Z,47.30
2017-05-22T20:12:36.391Z,47.20
2017-05-22T20:15:05.697Z,47.40
2017-05-22T20:17:34.793Z,47.60
2017-05-22T20:20:03.821Z,47.60
2017-05-22T20:22:32.892Z,47.60
2017-05-22T20:25:02.410Z,48.20
2017-05-22T20:27:31.549Z,47.70
2017-05-22T20:30:00.625Z,47.80
2017-05-22T20:32:30.012Z,47.90
2017-05-22T20:34:59.134Z,48.00
2017-05-22T20:37:28.409Z,48.00
2017-05-22T20:39:57.454Z,48.00
2017-05-22T20:42:26.544Z,48.10
2017-05-22T20:44:55.606Z,48.30
2017-05-22T20:47:24.617Z,48.60
2017-05-22T20:49:53.653Z,48.70
2017-05-22T20:52:22.686Z,48.60
2017-05-22T20:54:52.048Z,48.90
2017-05-22T20:57:21.165Z,49.20
2017-05-22T20:59:50.207Z,49.10
2017-05-22T21:02:19.259Z,49.20
2017-05-22T21:04:48.295Z,49.20
2017-05-22T21:07:17.353Z,49.20
2017-05-22T21:09:46.374Z,49.30
2017-05-22T21:12:15.451Z,49.30
2017-05-22T21:14:44.543Z,49.60
2017-05-22T21:17:13.572Z,49.30
2017-05-22T21:19:42.586Z,49.50
2017-05-22T21:22:11.738Z,50.00
2017-05-22T21:24:40.836Z,49.80
2017-05-22T21:27:09.846Z,50.40
2017-05-22T21:29:39.025Z,50.90
2017-05-22T21:32:08.056Z,51.30
2017-05-22T21:34:37.162Z,51.90
2017-05-22T21:37:06.313Z,51.90
2017-05-22T21:39:35.351Z,52.30
2017-05-22T21:42:04.480Z,52.80
2017-05-22T21:44:33.613Z,52.70
2017-05-22T21:47:02.829Z,53.10
2017-05-22T21:49:32.113Z,53.50
2017-05-22T21:52:01.239Z,53.50
2017-05-22T21:54:30.357Z,53.60
2017-05-22T21:56:59.531Z,53.60
2017-05-22T21:59:28.649Z,53.40
2017-05-22T22:01:57.741Z,53.00
2017-05-22T22:04:27.004Z,53.10
2017-05-22T22:06:56.302Z,53.00
2017-05-22T22:09:25.550Z,53.00
2017-05-22T22:11:54.785Z,52.90
2017-05-22T22:14:24.042Z,52.80
2017-05-22T22:16:53.091Z,52.80
2017-05-22T22:19:22.386Z,52.80
2017-05-22T22:21:51.519Z,52.80
2017-05-22T22:24:20.618Z,52.90
2017-05-22T22:26:49.696Z,52.80
2017-05-22T22:29:19.094Z,53.00
2017-05-22T22:31:48.136Z,53.60
2017-05-22T22:34:17.234Z,53.70
2017-05-22T22:36:46.800Z,54.20
2017-05-22T22:39:15.997Z,54.20
2017-05-22T22:41:45.153Z,54.70
2017-05-22T22:44:14.473Z,55.10
2017-05-22T22:46:43.548Z,55.40
2017-05-22T22:49:12.798Z,55.30
2017-05-22T22:51:42.033Z,56.00
2017-05-22T22:54:11.253Z,55.30
2017-05-22T22:56:40.522Z,55.10
2017-05-22T22:59:10.155Z,55.10
2017-05-22T23:01:39.497Z,54.90
2017-05-22T23:04:08.801Z,54.70
2017-05-22T23:06:38.032Z,54.50
2017-05-22T23:09:07.115Z,54.60
2017-05-22T23:11:36.280Z,54.80
2017-05-22T23:14:05.739Z,55.20
2017-05-22T23:16:34.748Z,55.70
2017-05-22T23:19:03.844Z,55.80
2017-05-22T23:21:32.978Z,55.60
2017-05-22T23:24:02.096Z,56.00
2017-05-22T23:26:31.216Z,55.90
2017-05-22T23:29:00.357Z,56.60
2017-05-22T23:31:29.438Z,56.60
2017-05-22T23:33:58.675Z,56.70
2017-05-22T23:36:27.843Z,56.80
2017-05-22T23:38:56.955Z,57.20
2017-05-22T23:41:26.073Z,56.90
2017-05-22T23:43:55.398Z,57.00
2017-05-22T23:46:24.605Z,57.10
2017-05-22T23:48:53.663Z,56.90
2017-05-22T23:51:23.014Z,57.00
2017-05-22T23:53:52.310Z,57.20
2017-05-22T23:56:21.398Z,57.50
2017-05-22T23:58:50.523Z,57.50
